Southern Sonoma County Latest

20 Stations

15 Minute Data
as of 5/3/26 11:23 PM PDT
Station Date Time Temp (°F) RH (%) Dew Pt (°F) Wind Spd (mph) Wind Dir (°) Wind Gust (mph) Latest Rain (In) Daily Rain (In) Daily Min Temp (°F) Daily Max Temp (°F)
Upper Rincon Valley 5/3/26 2315 50.0   0.5 94   5 48.5   1.9 1.7   1.1 SW | 228 4.0   2.1 0.00 0.00 48.7   1.0 61.0   0.9
Lower Bennett Valley 5/3/26 2315 49.0   3.1 99   10 48.7   0.3 0.8   0.3 WSW | 238 2.1   1.1 0.00 0.00 47.2   3.3 63.9   1.9
Kenwood (Wildwood) 5/3/26 2315 49.8   2.3 92   6 47.7   0.4 1.3   1.9 NNE | 33 2.3   4.0 0.00 0.00 49.5   0.6 66.4   2.0
Crane Creek (Ranch 62) 5/3/26 2315 49.6   3.2 92   3 47.4   2.2 0.6   0.8 NE | 43 1.5   2.5 0.00 0.00 49.4   2.2 67.6   6.7
Rohnert Park-West (Stony Point) 5/3/26 2315 48.1   5.2 95   4 46.6   4.1 0.2   1.9 S | 174 2.6   1.6 0.00 0.00 47.7   4.5 64.3   4.1
Rice-Spivak Vineyard 5/3/26 2315 44.8   7.5 - - - - - - - 43.8   7.9 66.5   4.0
Cartograph Wines Base 5/3/26 2315 50.9   1.1 96   2 49.8   0.6 2.6   0.6 SW | 227 6.4   0.3 0.00 0.00 50.6   0.5 61.9   3.6
Cartograph Wines Remote 5/3/26 2315 49.2   3.6 - - - - - - - 49.2   2.9 64.0   3.6
Penngrove (Asellus) 5/3/26 2315 50.9   1.9 93   5 49.0   0.4 1.3   0.3 NNW | 332 3.6   0.2 0.00 0.00 48.4   3.8 65.0   4.3
Sonoma Valley (Bedrock) 5/3/26 2315 50.0   1.2 89   1 46.8   0.9 - - - 0.00 0.00 48.9   3.2 65.0   0.3
Sonoma-West (Arnold) 5/3/26 2315 52.8   0.8 83   1 47.6   0.5 2.9   1.2 NW | 317 6.0   2.5 0.00 0.00 52.8   7.4 66.2   1.4
Sonoma Valley HS 5/3/26 2315 52.9   0.7 90   3 50.0   0.2 0.6   1.3 WNW | 287 2.7   1.4 0.00 0.01 52.5   2.8 65.1   2.0
Sonoma East (Bundschu01) 5/3/26 2315 48.9   4.8 89   9 45.9   2.0 1.9   0.9 N | 9 3.1   2.8 0.00 0.00 48.5   0.1 65.3   1.0
Sonoma-SE (Napoli) 5/3/26 2315 49.0   4.7 86   5 44.9   3.1 0.0   0.3 N | 0 0.0   5.8 0.00 0.00 48.5   0.8 66.0   0.9
Schellville (Sasaki) 2/7/26 1900 53.4   2.2 88   10 49.9   1.0 3.3   1.8 SW | 225 5.8   4.0 0.00 0.00 47.0   0.8 62.8   8.4
Petaluma (Ranch 10) 5/3/26 2315 50.8   3.3 92   13 48.5   0.7 1.2   2.8 WNW | 302 2.5   4.8 0.00 0.00 50.4   1.9 66.9   2.8
Carneros (Ranch 71) 5/3/26 2315 50.9   1.3 88   3 47.3   0.5 2.8   4.5 WNW | 303 4.3   7.8 0.00 0.00 50.8   0.5 64.1   0.5
Ricci Vineyards (Carneros) 5/3/26 2315 49.9   2.2 90   5 47.0   0.6 2.1   1.5 WNW | 289 3.2   3.2 0.00 0.00 49.6   1.4 65.7   0.3
Carneros Upper (Ranch 81) 5/3/26 2315 50.8   1.2 87   3 47.2   0.2 5.3   2.0 W | 272 7.5   5.2 - - 50.8   0.6 64.8   0.6
Carneros Lower (Ranch 81) 5/3/26 2315 50.3   1.7 89   2 47.3   1.0 0.0   0.3 SE | 125 0.4   2.1 0.00 0.00 50.3   1.3 69.4   1.0
Max     52.9 99 50.0 5.3 - 7.5 0.00 0.01 52.8 69.4
Avg     49.9 91 47.7 1.6 - 3.3 0.00 - - -
Min     44.8 83 44.9 0.0 - 0.0 0.00 0.00 43.8 61.0